Airport View

Enter AWOS ICAO identifier for current METAR.

ex. KFNL

KJST 250154Z AUTO 14007KT 5SM BR OVC004 16/13 A3016 RMK AO2 SLP207 T01560133

25 May 2020 02:19

Frequency: 118.325

Phone: 814-535-3511

Other Area AWOS: K2G9 - KHMZ - KIDI - KAOO

TAF AMD KJST 250148Z 2502/2524 14008KT 4SM BR OVC003 FM251100 17004KT 4SM BR OVC007 FM251400 16005KT P6SM BKN015 FM251800 14007KT P6SM SCT040 BKN250